createdAt,value
2017-09-09T00:02:31.389Z,15.44
2017-09-09T00:07:27.747Z,15.54
2017-09-09T00:12:23.455Z,15.44
2017-09-09T00:17:19.337Z,15.36
2017-09-09T00:22:15.811Z,15.28
2017-09-09T00:27:11.268Z,15.07
2017-09-09T00:32:07.095Z,15.03
2017-09-09T00:37:02.751Z,14.89
2017-09-09T00:42:00.002Z,14.82
2017-09-09T00:46:55.462Z,14.73
2017-09-09T00:51:51.441Z,14.84
2017-09-09T00:56:47.469Z,14.85
2017-09-09T01:01:43.434Z,14.78
2017-09-09T01:06:40.348Z,14.88
2017-09-09T01:11:37.116Z,14.97
2017-09-09T01:16:32.364Z,14.88
2017-09-09T01:21:28.645Z,14.84
2017-09-09T01:26:24.434Z,14.86
2017-09-09T01:31:20.345Z,15.00
2017-09-09T01:36:16.001Z,14.88
2017-09-09T01:41:12.196Z,14.99
2017-09-09T01:46:08.934Z,15.02
2017-09-09T01:51:04.703Z,14.91
2017-09-09T01:56:00.798Z,14.85
2017-09-09T02:00:56.774Z,14.85
2017-09-09T02:05:52.587Z,14.86
2017-09-09T02:10:48.406Z,14.81
2017-09-09T02:15:44.414Z,14.82
2017-09-09T02:20:40.237Z,14.78
2017-09-09T02:25:38.193Z,14.66
2017-09-09T02:30:34.596Z,14.58
2017-09-09T02:35:29.941Z,14.54
2017-09-09T02:40:26.917Z,14.50
2017-09-09T02:45:22.128Z,14.35
2017-09-09T02:50:18.241Z,14.35
2017-09-09T02:55:15.229Z,14.28
2017-09-09T03:00:11.041Z,14.10
2017-09-09T03:05:07.214Z,14.05
2017-09-09T03:10:03.154Z,14.07
2017-09-09T03:14:59.192Z,14.18
2017-09-09T03:19:55.163Z,14.18
2017-09-09T03:24:50.991Z,14.15
2017-09-09T03:29:46.876Z,14.15
2017-09-09T03:34:42.858Z,14.04
2017-09-09T03:39:38.753Z,14.08
2017-09-09T03:44:34.726Z,14.03
2017-09-09T03:49:31.533Z,14.07
2017-09-09T03:54:27.085Z,14.07
2017-09-09T03:59:22.952Z,13.97
2017-09-09T04:04:18.532Z,13.97
2017-09-09T04:09:14.023Z,13.96
2017-09-09T04:14:10.399Z,13.97
2017-09-09T04:19:06.061Z,14.07
2017-09-09T04:24:02.978Z,13.96
2017-09-09T04:28:59.328Z,13.96
2017-09-09T04:33:56.299Z,14.08
2017-09-09T04:38:52.635Z,14.05
2017-09-09T04:43:47.971Z,14.03
2017-09-09T04:48:44.775Z,14.05
2017-09-09T04:53:40.328Z,14.04
2017-09-09T04:58:37.218Z,14.07
2017-09-09T05:03:32.749Z,13.97
2017-09-09T05:08:28.862Z,13.95
2017-09-09T05:13:25.023Z,13.97
2017-09-09T05:18:20.903Z,13.99
2017-09-09T05:23:16.782Z,13.95
2017-09-09T05:28:12.990Z,14.00
2017-09-09T05:33:10.260Z,14.03
2017-09-09T05:38:06.376Z,14.03
2017-09-09T05:43:01.864Z,14.04
2017-09-09T05:47:58.835Z,14.00
2017-09-09T05:52:54.359Z,13.92
2017-09-09T05:57:50.514Z,13.92
2017-09-09T06:02:46.453Z,13.92
2017-09-09T06:07:42.371Z,13.90
2017-09-09T06:12:38.141Z,13.96
2017-09-09T06:17:34.892Z,13.89
2017-09-09T06:22:31.479Z,13.86
2017-09-09T06:27:26.902Z,13.75
2017-09-09T06:32:22.882Z,13.67
2017-09-09T06:37:18.563Z,13.86
2017-09-09T06:42:15.756Z,13.89
2017-09-09T06:47:11.317Z,13.72
2017-09-09T06:52:07.353Z,13.77
2017-09-09T06:57:03.324Z,13.81
2017-09-09T07:02:00.215Z,13.89
2017-09-09T07:06:56.735Z,13.79
2017-09-09T07:11:53.933Z,13.74
2017-09-09T07:16:49.447Z,13.81
2017-09-09T07:21:45.387Z,14.00
2017-09-09T07:26:41.351Z,14.00
2017-09-09T07:31:37.312Z,14.05
2017-09-09T07:36:33.084Z,14.14
2017-09-09T07:41:29.144Z,14.11
2017-09-09T07:46:25.299Z,14.25
2017-09-09T07:51:21.384Z,14.29
2017-09-09T07:56:18.498Z,14.48
2017-09-09T08:01:14.238Z,14.63
2017-09-09T08:06:10.592Z,14.70
2017-09-09T08:11:07.138Z,14.77
2017-09-09T08:16:03.191Z,14.92
2017-09-09T08:20:59.049Z,14.88
2017-09-09T08:25:54.873Z,14.97
2017-09-09T08:30:51.853Z,15.36
2017-09-09T08:35:48.177Z,15.55
2017-09-09T08:40:44.369Z,15.61
2017-09-09T08:45:39.953Z,15.49
2017-09-09T08:50:36.767Z,15.58
2017-09-09T08:55:32.346Z,15.37
2017-09-09T09:00:28.311Z,15.24
2017-09-09T09:05:25.007Z,15.11
2017-09-09T09:10:21.547Z,14.92
2017-09-09T09:15:17.607Z,15.15
2017-09-09T09:20:16.647Z,15.15
2017-09-09T09:25:12.649Z,15.82
2017-09-09T09:30:08.969Z,15.95
2017-09-09T09:35:05.559Z,16.04
2017-09-09T09:40:01.447Z,15.92
2017-09-09T09:44:58.271Z,15.84
2017-09-09T09:49:54.911Z,16.23
2017-09-09T09:54:52.175Z,16.28
2017-09-09T09:59:47.301Z,16.10
2017-09-09T10:04:43.857Z,15.82
2017-09-09T10:09:38.991Z,15.59
2017-09-09T10:14:35.390Z,15.42
2017-09-09T10:19:31.398Z,15.51
2017-09-09T10:24:28.522Z,15.61
2017-09-09T10:29:25.989Z,16.39
2017-09-09T10:34:23.322Z,16.47
2017-09-09T10:39:19.906Z,16.10
2017-09-09T10:44:15.269Z,15.91
2017-09-09T10:49:12.061Z,16.24
2017-09-09T10:54:08.550Z,16.38
2017-09-09T10:59:04.773Z,16.60
2017-09-09T11:04:02.080Z,16.69
2017-09-09T11:09:01.573Z,18.07
2017-09-09T11:13:59.136Z,18.95
2017-09-09T11:18:56.224Z,19.18
2017-09-09T11:23:52.198Z,19.79
2017-09-09T11:28:48.081Z,18.96
2017-09-09T11:33:43.424Z,19.52
2017-09-09T11:38:40.501Z,19.71
2017-09-09T11:43:35.749Z,19.74
2017-09-09T11:48:33.343Z,20.60
2017-09-09T11:53:30.474Z,20.95
2017-09-09T11:58:27.893Z,20.56
2017-09-09T12:03:21.436Z,20.87
2017-09-09T12:08:18.156Z,20.37
2017-09-09T12:13:13.731Z,19.66
2017-09-09T12:18:07.869Z,19.62
2017-09-09T12:23:05.162Z,19.33
2017-09-09T12:28:00.312Z,19.27
2017-09-09T12:32:55.449Z,19.18
2017-09-09T12:37:51.583Z,19.14
2017-09-09T12:42:47.150Z,19.02
2017-09-09T12:47:43.159Z,18.83
2017-09-09T12:52:40.068Z,18.84
2017-09-09T12:57:35.623Z,18.75
2017-09-09T13:02:31.074Z,18.47
2017-09-09T13:07:28.335Z,18.49
2017-09-09T13:12:24.534Z,18.45
2017-09-09T13:17:20.419Z,18.33
2017-09-09T13:22:15.993Z,18.23
2017-09-09T13:27:11.793Z,18.10
2017-09-09T13:32:09.351Z,17.87
2017-09-09T13:37:06.525Z,17.76
2017-09-09T13:42:02.663Z,17.60
2017-09-09T13:46:57.824Z,17.34
2017-09-09T13:51:53.519Z,17.19
2017-09-09T13:56:49.842Z,16.87
2017-09-09T14:01:45.239Z,16.61
2017-09-09T14:06:41.787Z,16.61
2017-09-09T14:11:38.353Z,16.64
2017-09-09T14:16:33.858Z,16.51
2017-09-09T14:21:29.681Z,16.46
2017-09-09T14:26:26.789Z,16.74
2017-09-09T14:31:23.006Z,16.68
2017-09-09T14:36:20.058Z,16.74
2017-09-09T14:41:15.341Z,16.56
2017-09-09T14:46:11.262Z,16.61
2017-09-09T14:51:08.159Z,16.57
2017-09-09T14:56:03.517Z,16.65
2017-09-09T15:00:59.922Z,16.65
2017-09-09T15:05:55.919Z,16.53
2017-09-09T15:10:53.942Z,16.76
2017-09-09T15:15:49.786Z,16.97
2017-09-09T15:20:47.002Z,17.14
2017-09-09T15:25:43.381Z,17.19
2017-09-09T15:30:39.240Z,17.16
2017-09-09T15:35:35.899Z,17.04
2017-09-09T15:40:31.552Z,16.87
2017-09-09T15:45:26.853Z,16.76
2017-09-09T15:50:22.537Z,16.76
2017-09-09T15:55:19.144Z,16.68
2017-09-09T16:00:14.583Z,16.61
2017-09-09T16:05:12.668Z,16.68
2017-09-09T16:10:07.974Z,16.58
2017-09-09T16:15:03.735Z,16.69
2017-09-09T16:19:59.528Z,16.61
2017-09-09T16:24:55.714Z,16.61
2017-09-09T16:29:52.066Z,16.49
2017-09-09T16:34:48.149Z,16.64
2017-09-09T16:39:45.391Z,16.65
2017-09-09T16:44:42.376Z,16.49
2017-09-09T16:49:38.524Z,16.36
2017-09-09T16:54:35.031Z,16.04
2017-09-09T16:59:30.313Z,15.90
2017-09-09T17:04:26.793Z,15.82
2017-09-09T17:09:23.221Z,15.76
2017-09-09T17:14:18.690Z,15.80
2017-09-09T17:19:15.693Z,15.79
2017-09-09T17:24:11.051Z,15.55
2017-09-09T17:29:06.991Z,15.49
2017-09-09T17:34:02.713Z,15.51
2017-09-09T17:38:58.793Z,15.47
2017-09-09T17:43:55.602Z,15.36
2017-09-09T17:48:51.250Z,15.35
2017-09-09T17:53:47.211Z,15.35
2017-09-09T17:58:43.934Z,15.35
2017-09-09T18:03:40.398Z,15.49
2017-09-09T18:08:37.399Z,15.37
2017-09-09T18:13:33.281Z,15.28
2017-09-09T18:18:30.254Z,15.18
2017-09-09T18:23:26.181Z,15.15
2017-09-09T18:28:22.950Z,15.00
2017-09-09T18:33:18.384Z,14.89
2017-09-09T18:38:15.025Z,14.89
2017-09-09T18:43:10.726Z,14.85
2017-09-09T18:48:06.591Z,14.84
2017-09-09T18:53:03.473Z,14.88
2017-09-09T18:58:00.127Z,14.97
2017-09-09T19:02:56.689Z,14.94
2017-09-09T19:07:52.713Z,14.84
2017-09-09T19:12:49.620Z,14.65
2017-09-09T19:17:44.977Z,14.66
2017-09-09T19:22:40.846Z,14.50
2017-09-09T19:27:38.260Z,14.44
2017-09-09T19:32:34.729Z,14.29
2017-09-09T19:37:30.313Z,14.28
2017-09-09T19:42:27.767Z,14.18
2017-09-09T19:47:23.459Z,14.20
2017-09-09T19:52:19.439Z,14.17
2017-09-09T19:57:16.265Z,14.05
2017-09-09T20:02:12.801Z,14.03
2017-09-09T20:07:09.881Z,14.14
2017-09-09T20:12:07.536Z,14.07
2017-09-09T20:17:03.850Z,13.99
2017-09-09T20:21:59.528Z,13.95
2017-09-09T20:26:55.560Z,13.99
2017-09-09T20:31:51.801Z,14.00
2017-09-09T20:36:47.626Z,14.08
2017-09-09T20:41:43.452Z,14.00
2017-09-09T20:46:39.337Z,14.08
2017-09-09T20:51:35.086Z,14.05
2017-09-09T20:56:31.016Z,14.05
2017-09-09T21:01:27.263Z,13.97
2017-09-09T21:06:23.374Z,13.92
2017-09-09T21:11:20.552Z,13.86
2017-09-09T21:16:17.093Z,13.96
2017-09-09T21:21:12.585Z,13.86
2017-09-09T21:26:09.161Z,13.86
2017-09-09T21:31:04.914Z,13.95
2017-09-09T21:36:00.846Z,13.81
2017-09-09T21:40:56.630Z,13.78
2017-09-09T21:45:53.071Z,13.74
2017-09-09T21:50:48.785Z,13.70
2017-09-09T21:55:45.680Z,13.74
2017-09-09T22:00:41.097Z,13.70
2017-09-09T22:05:36.437Z,13.65
2017-09-09T22:10:32.741Z,13.57
2017-09-09T22:15:29.387Z,13.49
2017-09-09T22:20:25.924Z,13.27
2017-09-09T22:25:21.075Z,13.25
2017-09-09T22:30:18.195Z,13.31
2017-09-09T22:35:14.927Z,13.23
2017-09-09T22:40:10.329Z,13.16
2017-09-09T22:45:06.070Z,13.00
2017-09-09T22:50:01.718Z,13.04
2017-09-09T22:54:57.953Z,13.08
2017-09-09T22:59:55.054Z,13.11
2017-09-09T23:04:51.452Z,13.04
2017-09-09T23:09:46.895Z,13.04
2017-09-09T23:14:42.613Z,13.12
2017-09-09T23:19:38.592Z,13.28
2017-09-09T23:24:34.793Z,13.31
2017-09-09T23:29:30.781Z,13.25
2017-09-09T23:34:27.010Z,13.22
2017-09-09T23:39:22.808Z,13.09
2017-09-09T23:44:18.577Z,13.05
2017-09-09T23:49:14.407Z,12.98
2017-09-09T23:54:10.408Z,13.05
2017-09-09T23:59:05.966Z,12.90
